Meadow Lake, Alaska
Current Conditions -  °F | °C
As of 7:16 AM on Thursday 27 Nov 2014 (Local Time) from PAWS Reporting Station
Clear Clear  
Wind Chill:   Ceiling: Unl
Heat Index:   Visibility: 8mi
Dew Point: -2°   Wind: 3mph
Humidity: 67%   Direction: 280°W
Pressure: 30.19"   Gusts: NA
Location:  61.5841°N, 149.443°W
Report Text: PAWS 271616Z AUTO 28003KT 8SM CLR M14/M19 A3019 RMK AO1
Loading
Personal Weather Stations






























Interactive Weather Map New forecast layout! Learn more

10-Day Weather Forecast

Advertisements
Track Severe Weather on mobile